createdAt,value
2017-08-23T00:00:06.528Z,1008.33
2017-08-23T00:00:27.287Z,1008.26
2017-08-23T00:00:42.592Z,1008.28
2017-08-23T00:00:51.329Z,1008.30
2017-08-23T00:01:01.084Z,1008.36
2017-08-23T00:01:18.809Z,1008.25
2017-08-23T00:01:28.548Z,1008.33
2017-08-23T00:01:38.268Z,1008.29
2017-08-23T00:01:48.021Z,1008.33
2017-08-23T00:01:57.742Z,1008.31
2017-08-23T00:02:07.500Z,1008.31
2017-08-23T00:02:17.245Z,1008.28
2017-08-23T00:02:26.972Z,1008.34
2017-08-23T00:02:36.706Z,1008.35
2017-08-23T00:02:46.477Z,1008.28
2017-08-23T00:02:56.196Z,1008.33
2017-08-23T00:03:11.126Z,1008.37
2017-08-23T00:03:19.877Z,1008.33
2017-08-23T00:03:29.624Z,1008.29
2017-08-23T00:03:39.380Z,1008.32
2017-08-23T00:03:49.105Z,1008.33
2017-08-23T00:03:58.845Z,1008.34
2017-08-23T00:04:08.574Z,1008.33
2017-08-23T00:04:18.316Z,1008.24
2017-08-23T00:04:28.065Z,1008.30
2017-08-23T00:04:37.792Z,1008.32
2017-08-23T00:04:47.533Z,1008.32
2017-08-23T00:04:57.256Z,1008.34
2017-08-23T00:05:07.024Z,1008.30
2017-08-23T00:05:16.737Z,1008.28
2017-08-23T00:05:26.477Z,1008.28
2017-08-23T00:05:36.233Z,1008.27
2017-08-23T00:05:56.238Z,1008.29
2017-08-23T00:06:15.665Z,1008.32
2017-08-23T00:06:35.402Z,1008.37
2017-08-23T00:06:48.660Z,1008.34
2017-08-23T00:06:57.843Z,1008.33
2017-08-23T00:07:07.557Z,1008.33
2017-08-23T00:07:17.284Z,1008.36
2017-08-23T00:07:27.033Z,1008.38
2017-08-23T00:07:36.774Z,1008.36
2017-08-23T00:07:46.565Z,1008.30
2017-08-23T00:07:56.237Z,1008.33
2017-08-23T00:08:05.994Z,1008.38
2017-08-23T00:08:20.921Z,1008.36
2017-08-23T00:08:29.668Z,1008.32
2017-08-23T00:08:39.419Z,1008.28
2017-08-23T00:08:49.159Z,1008.36
2017-08-23T00:08:58.906Z,1008.28
2017-08-23T00:09:08.624Z,1008.35
2017-08-23T00:09:18.369Z,1008.35
2017-08-23T00:09:28.092Z,1008.35
2017-08-23T00:09:37.828Z,1008.34
2017-08-23T00:09:47.605Z,1008.34
2017-08-23T00:10:06.593Z,1008.25
2017-08-23T00:10:20.294Z,1008.37
2017-08-23T00:10:36.268Z,1008.33
2017-08-23T00:10:45.613Z,1008.27
2017-08-23T00:10:55.344Z,1008.32
2017-08-23T00:11:11.290Z,1008.36
2017-08-23T00:11:20.672Z,1008.32
2017-08-23T00:11:30.420Z,1008.30
2017-08-23T00:11:40.137Z,1008.33
2017-08-23T00:11:49.873Z,1008.32
2017-08-23T00:12:04.816Z,1008.40
2017-08-23T00:12:13.571Z,1008.41
2017-08-23T00:12:23.303Z,1008.33
2017-08-23T00:12:33.062Z,1008.39
2017-08-23T00:12:42.768Z,1008.27
2017-08-23T00:12:52.568Z,1008.33
2017-08-23T00:13:02.261Z,1008.34
2017-08-23T00:13:11.996Z,1008.36
2017-08-23T00:13:21.744Z,1008.33
2017-08-23T00:13:31.463Z,1008.32
2017-08-23T00:13:41.624Z,1008.36
2017-08-23T00:13:50.940Z,1008.30
2017-08-23T00:14:00.688Z,1008.38
2017-08-23T00:14:10.425Z,1008.39
2017-08-23T00:14:20.161Z,1008.39
2017-08-23T00:14:29.916Z,1008.35
2017-08-23T00:14:39.652Z,1008.39
2017-08-23T00:14:49.373Z,1008.32
2017-08-23T00:15:04.324Z,1008.33
2017-08-23T00:15:13.074Z,1008.39
2017-08-23T00:15:32.007Z,1008.32
2017-08-23T00:15:41.588Z,1008.32
2017-08-23T00:16:01.595Z,1008.31
2017-08-23T00:16:20.872Z,1008.28
2017-08-23T00:16:30.484Z,1008.39
2017-08-23T00:16:40.181Z,1008.30
2017-08-23T00:16:55.140Z,1008.34
2017-08-23T00:17:03.892Z,1008.31
2017-08-23T00:17:13.637Z,1008.34
2017-08-23T00:17:23.380Z,1008.25
2017-08-23T00:17:33.121Z,1008.35
2017-08-23T00:17:42.849Z,1008.34
2017-08-23T00:17:52.628Z,1008.31
2017-08-23T00:18:02.354Z,1008.36
2017-08-23T00:18:12.068Z,1008.36
2017-08-23T00:18:21.806Z,1008.36
2017-08-23T00:18:36.741Z,1008.37
2017-08-23T00:18:45.500Z,1008.33
2017-08-23T00:18:55.257Z,1008.42
2017-08-23T00:19:15.357Z,1008.35
2017-08-23T00:19:28.568Z,1008.27
2017-08-23T00:19:47.721Z,1008.31
2017-08-23T00:20:01.757Z,1008.33
2017-08-23T00:20:10.453Z,1008.32
2017-08-23T00:20:20.190Z,1008.30
2017-08-23T00:20:30.001Z,1008.33
2017-08-23T00:20:39.684Z,1008.37
2017-08-23T00:20:49.469Z,1008.29
2017-08-23T00:20:59.162Z,1008.36
2017-08-23T00:21:18.102Z,1008.28
2017-08-23T00:21:32.878Z,1008.36
2017-08-23T00:21:41.618Z,1008.24
2017-08-23T00:22:02.268Z,1008.32
2017-08-23T00:22:21.356Z,1008.28
2017-08-23T00:22:30.544Z,1008.29
2017-08-23T00:22:40.220Z,1008.31
2017-08-23T00:22:55.183Z,1008.29
2017-08-23T00:23:13.141Z,1008.26
2017-08-23T00:23:27.892Z,1008.30
2017-08-23T00:23:36.667Z,1008.33
2017-08-23T00:23:46.405Z,1008.28
2017-08-23T00:23:56.156Z,1008.39
2017-08-23T00:24:12.085Z,1008.31
2017-08-23T00:24:21.481Z,1008.31
2017-08-23T00:24:31.196Z,1008.29
2017-08-23T00:24:40.928Z,1008.40
2017-08-23T00:24:50.688Z,1008.35
2017-08-23T00:25:00.392Z,1008.31
2017-08-23T00:25:10.149Z,1008.29
2017-08-23T00:25:24.151Z,1008.24
2017-08-23T00:25:33.852Z,1008.28
2017-08-23T00:26:02.780Z,1008.31
2017-08-23T00:26:12.570Z,1008.28
2017-08-23T00:26:22.336Z,1008.29
2017-08-23T00:26:37.185Z,1008.35
2017-08-23T00:26:46.009Z,1008.29
2017-08-23T00:27:00.924Z,1008.28
2017-08-23T00:27:09.664Z,1008.30
2017-08-23T00:27:19.387Z,1008.28
2017-08-23T00:27:29.120Z,1008.32
2017-08-23T00:27:38.881Z,1008.31
2017-08-23T00:27:48.613Z,1008.31
2017-08-23T00:27:58.360Z,1008.33
2017-08-23T00:28:11.303Z,1008.27
2017-08-23T00:28:30.620Z,1008.36
2017-08-23T00:28:40.385Z,1008.27
2017-08-23T00:28:50.108Z,1008.30
2017-08-23T00:28:59.829Z,1008.28
2017-08-23T00:29:09.569Z,1008.26
2017-08-23T00:29:26.497Z,1008.26
2017-08-23T00:29:55.674Z,1008.31
2017-08-23T00:30:05.426Z,1008.32
2017-08-23T00:30:23.221Z,1008.28
2017-08-23T00:30:44.403Z,1008.35
2017-08-23T00:30:53.401Z,1008.32
2017-08-23T00:31:03.128Z,1008.33
2017-08-23T00:31:12.825Z,1008.30
2017-08-23T00:31:22.573Z,1008.25
2017-08-23T00:31:37.549Z,1008.24
2017-08-23T00:31:46.265Z,1008.30
2017-08-23T00:31:56.013Z,1008.28
2017-08-23T00:32:05.732Z,1008.30
2017-08-23T00:32:21.884Z,1008.27
2017-08-23T00:32:31.625Z,1008.33
2017-08-23T00:32:41.418Z,1008.31
2017-08-23T00:32:54.293Z,1008.24
2017-08-23T00:33:04.060Z,1008.28
2017-08-23T00:33:19.984Z,1008.33
2017-08-23T00:33:29.325Z,1008.28
2017-08-23T00:33:44.260Z,1008.33
2017-08-23T00:34:10.627Z,1008.35
2017-08-23T00:34:31.600Z,1008.31
2017-08-23T00:34:41.354Z,1008.37
2017-08-23T00:35:01.369Z,1008.27
2017-08-23T00:35:15.650Z,1008.24
2017-08-23T00:35:25.389Z,1008.26
2017-08-23T00:35:35.118Z,1008.32
2017-08-23T00:35:44.888Z,1008.24
2017-08-23T00:35:54.625Z,1008.29
2017-08-23T00:36:28.371Z,1008.27
2017-08-23T00:36:52.517Z,1008.31
2017-08-23T00:37:02.218Z,1008.30
2017-08-23T00:37:11.974Z,1008.28
2017-08-23T00:37:32.924Z,1008.35
2017-08-23T00:37:47.427Z,1008.26
2017-08-23T00:38:06.364Z,1008.32
2017-08-23T00:38:15.949Z,1008.30
2017-08-23T00:38:25.665Z,1008.33
2017-08-23T00:38:40.567Z,1008.33
2017-08-23T00:39:13.832Z,1008.35
2017-08-23T00:39:24.124Z,1008.31
2017-08-23T00:39:33.861Z,1008.29
2017-08-23T00:39:43.591Z,1008.29
2017-08-23T00:39:58.145Z,1008.30
2017-08-23T00:40:09.461Z,1008.29
2017-08-23T00:40:19.261Z,1008.27
2017-08-23T00:40:45.177Z,1008.27
2017-08-23T00:40:59.892Z,1008.30
2017-08-23T00:41:08.641Z,1008.34
2017-08-23T00:41:18.397Z,1008.24
2017-08-23T00:41:28.148Z,1008.24
2017-08-23T00:41:37.861Z,1008.35
2017-08-23T00:41:54.791Z,1008.33
2017-08-23T00:42:04.773Z,1008.26
2017-08-23T00:42:14.513Z,1008.23
2017-08-23T00:42:24.285Z,1008.30
2017-08-23T00:42:39.175Z,1008.29
2017-08-23T00:42:57.554Z,1008.28
2017-08-23T00:43:08.879Z,1008.29
2017-08-23T00:43:24.836Z,1008.30
2017-08-23T00:43:34.193Z,1008.29
2017-08-23T00:43:43.934Z,1008.25
2017-08-23T00:43:53.686Z,1008.28
2017-08-23T00:44:03.421Z,1008.29
2017-08-23T00:44:13.144Z,1008.26
2017-08-23T00:44:33.131Z,1008.24
2017-08-23T00:44:53.701Z,1008.22
2017-08-23T00:45:08.809Z,1008.29
2017-08-23T00:45:17.556Z,1008.27
2017-08-23T00:45:27.309Z,1008.26
2017-08-23T00:45:37.049Z,1008.27
2017-08-23T00:45:46.816Z,1008.29
2017-08-23T00:45:56.551Z,1008.28
2017-08-23T00:46:06.293Z,1008.20
2017-08-23T00:46:16.024Z,1008.16
2017-08-23T00:46:27.394Z,1008.19
2017-08-23T00:46:43.469Z,1008.20
2017-08-23T00:46:54.813Z,1008.22
2017-08-23T00:47:04.541Z,1008.19
2017-08-23T00:47:14.288Z,1008.23
2017-08-23T00:47:25.634Z,1008.24
2017-08-23T00:47:35.391Z,1008.24
2017-08-23T00:47:45.108Z,1008.31
2017-08-23T00:48:00.054Z,1008.24
2017-08-23T00:48:08.888Z,1008.26
2017-08-23T00:48:18.534Z,1008.28
2017-08-23T00:48:28.320Z,1008.20
2017-08-23T00:48:38.005Z,1008.19
2017-08-23T00:48:52.967Z,1008.20
2017-08-23T00:49:01.712Z,1008.21
2017-08-23T00:49:11.469Z,1008.35
2017-08-23T00:49:26.402Z,1008.31
2017-08-23T00:49:35.173Z,1008.24
2017-08-23T00:49:44.918Z,1008.24
2017-08-23T00:49:54.649Z,1008.21
2017-08-23T00:50:04.372Z,1008.23
2017-08-23T00:50:20.309Z,1008.25
2017-08-23T00:50:29.669Z,1008.23
2017-08-23T00:50:49.837Z,1008.19
2017-08-23T00:51:03.013Z,1008.20
2017-08-23T00:51:21.990Z,1008.16
2017-08-23T00:51:36.233Z,1008.23
2017-08-23T00:51:46.645Z,1008.15
2017-08-23T00:51:56.230Z,1008.15
2017-08-23T00:52:05.937Z,1008.26
2017-08-23T00:52:15.680Z,1008.25
2017-08-23T00:52:30.633Z,1008.19
2017-08-23T00:52:39.422Z,1008.18
2017-08-23T00:52:49.137Z,1008.25
2017-08-23T00:52:58.866Z,1008.18
2017-08-23T00:53:08.602Z,1008.22
2017-08-23T00:53:18.344Z,1008.30
2017-08-23T00:53:33.491Z,1008.25
2017-08-23T00:53:44.313Z,1008.21
2017-08-23T00:53:56.677Z,1008.23
2017-08-23T00:54:06.449Z,1008.24
2017-08-23T00:54:16.180Z,1008.19
2017-08-23T00:54:27.601Z,1008.18
2017-08-23T00:54:45.256Z,1008.19
2017-08-23T00:55:00.227Z,1008.17
2017-08-23T00:55:10.664Z,1008.22
2017-08-23T00:55:20.273Z,1008.17
2017-08-23T00:55:30.014Z,1008.19
2017-08-23T00:55:39.834Z,1008.18
2017-08-23T00:55:58.672Z,1008.18
2017-08-23T00:56:15.336Z,1008.25
2017-08-23T00:56:25.612Z,1008.26
2017-08-23T00:56:41.744Z,1008.20
2017-08-23T00:56:51.525Z,1008.20
2017-08-23T00:57:01.212Z,1008.17
2017-08-23T00:57:10.976Z,1008.19
2017-08-23T00:57:20.680Z,1008.18
2017-08-23T00:57:30.424Z,1008.23
2017-08-23T00:57:40.161Z,1008.19
2017-08-23T00:57:54.725Z,1008.21
2017-08-23T00:58:04.449Z,1008.17
2017-08-23T00:58:19.373Z,1008.22
2017-08-23T00:58:28.164Z,1008.16
2017-08-23T00:58:43.343Z,1008.17
2017-08-23T00:58:53.708Z,1008.23
2017-08-23T00:59:13.647Z,1008.22
2017-08-23T00:59:33.021Z,1008.21
2017-08-23T01:00:01.601Z,1008.22
2017-08-23T01:00:14.538Z,1008.21
2017-08-23T01:00:29.130Z,1008.20
2017-08-23T01:00:40.412Z,1008.22
2017-08-23T01:00:50.165Z,1008.23
2017-08-23T01:01:01.498Z,1008.21
2017-08-23T01:01:12.938Z,1008.18
2017-08-23T01:01:25.814Z,1008.19
2017-08-23T01:01:51.518Z,1008.21
2017-08-23T01:02:14.093Z,1008.18
2017-08-23T01:02:30.981Z,1008.18
2017-08-23T01:02:40.932Z,1008.22
2017-08-23T01:02:50.689Z,1008.24
2017-08-23T01:03:00.425Z,1008.20
2017-08-23T01:03:10.157Z,1008.19
2017-08-23T01:03:31.107Z,1008.17
2017-08-23T01:03:40.877Z,1008.19
2017-08-23T01:03:55.825Z,1008.21
2017-08-23T01:04:04.562Z,1008.22
2017-08-23T01:04:21.481Z,1008.22
2017-08-23T01:04:31.508Z,1008.23
2017-08-23T01:05:00.385Z,1008.19
2017-08-23T01:05:14.956Z,1008.25
2017-08-23T01:05:24.659Z,1008.26
2017-08-23T01:05:34.441Z,1008.31
2017-08-23T01:05:56.529Z,1008.27
2017-08-23T01:06:10.892Z,1008.26
2017-08-23T01:06:23.832Z,1008.29
2017-08-23T01:06:50.776Z,1008.23
2017-08-23T01:07:03.561Z,1008.26
2017-08-23T01:07:13.311Z,1008.24
2017-08-23T01:07:23.017Z,1008.28
2017-08-23T01:07:32.749Z,1008.22
2017-08-23T01:07:42.490Z,1008.26
2017-08-23T01:07:52.230Z,1008.22
2017-08-23T01:08:08.209Z,1008.20
2017-08-23T01:08:17.532Z,1008.29
2017-08-23T01:08:33.464Z,1008.25
2017-08-23T01:08:42.895Z,1008.26
2017-08-23T01:09:07.473Z,1008.23
2017-08-23T01:09:36.748Z,1008.22
2017-08-23T01:10:00.272Z,1008.24
2017-08-23T01:10:14.918Z,1008.18
2017-08-23T01:10:30.452Z,1008.26
2017-08-23T01:10:39.218Z,1008.25
2017-08-23T01:10:48.938Z,1008.20
2017-08-23T01:10:58.696Z,1008.18
2017-08-23T01:11:08.421Z,1008.23
2017-08-23T01:11:18.148Z,1008.27
2017-08-23T01:11:27.880Z,1008.19
2017-08-23T01:11:39.282Z,1008.19
2017-08-23T01:11:48.957Z,1008.12
2017-08-23T01:11:58.783Z,1008.13
2017-08-23T01:12:08.449Z,1008.29
2017-08-23T01:12:18.382Z,1008.11
2017-08-23T01:12:28.082Z,1008.18
2017-08-23T01:12:37.672Z,1008.12
2017-08-23T01:12:47.462Z,1008.27
2017-08-23T01:12:57.145Z,1008.24
2017-08-23T01:13:06.877Z,1008.24
2017-08-23T01:13:25.784Z,1008.18
2017-08-23T01:13:35.401Z,1008.21
2017-08-23T01:13:45.137Z,1008.19
2017-08-23T01:13:54.832Z,1008.22
2017-08-23T01:14:04.576Z,1008.17
2017-08-23T01:14:14.312Z,1008.20
2017-08-23T01:14:24.062Z,1008.14
2017-08-23T01:14:33.789Z,1008.25
2017-08-23T01:14:43.541Z,1008.22
2017-08-23T01:14:53.273Z,1008.25
2017-08-23T01:15:03.012Z,1008.22
2017-08-23T01:15:12.813Z,1008.16
2017-08-23T01:15:22.473Z,1008.28
2017-08-23T01:15:42.421Z,1008.25
2017-08-23T01:15:52.858Z,1008.14
2017-08-23T01:16:12.633Z,1008.12
2017-08-23T01:16:32.000Z,1008.22
2017-08-23T01:16:46.640Z,1008.20
2017-08-23T01:16:55.419Z,1008.28
2017-08-23T01:17:05.144Z,1008.29
2017-08-23T01:17:14.882Z,1008.26
2017-08-23T01:17:24.621Z,1008.26
2017-08-23T01:17:34.409Z,1008.29
2017-08-23T01:17:44.096Z,1008.28
2017-08-23T01:17:53.832Z,1008.30
2017-08-23T01:18:03.593Z,1008.16
2017-08-23T01:18:13.324Z,1008.23
2017-08-23T01:18:23.045Z,1008.32
2017-08-23T01:18:32.789Z,1008.22
2017-08-23T01:18:43.500Z,1008.25
2017-08-23T01:18:52.301Z,1008.29
2017-08-23T01:19:07.436Z,1008.19
2017-08-23T01:19:19.270Z,1008.27
2017-08-23T01:19:29.058Z,1008.23
2017-08-23T01:19:38.745Z,1008.24
2017-08-23T01:19:50.069Z,1008.21
2017-08-23T01:20:00.061Z,1008.24
2017-08-23T01:20:17.786Z,1008.27
2017-08-23T01:20:32.010Z,1008.29
2017-08-23T01:20:47.452Z,1008.31
2017-08-23T01:21:06.546Z,1008.32
2017-08-23T01:21:26.663Z,1008.21
2017-08-23T01:21:42.257Z,1008.24
2017-08-23T01:22:02.952Z,1008.22
2017-08-23T01:22:22.378Z,1008.24
2017-08-23T01:22:36.921Z,1008.30
2017-08-23T01:22:45.612Z,1008.25
2017-08-23T01:22:55.352Z,1008.23
2017-08-23T01:23:05.160Z,1008.25
2017-08-23T01:23:14.856Z,1008.29
2017-08-23T01:23:53.413Z,1008.23
2017-08-23T01:24:03.136Z,1008.27
2017-08-23T01:24:12.880Z,1008.24
2017-08-23T01:24:29.416Z,1008.27
2017-08-23T01:24:46.164Z,1008.27
2017-08-23T01:24:55.905Z,1008.28
2017-08-23T01:25:05.633Z,1008.23
2017-08-23T01:25:20.577Z,1008.23
2017-08-23T01:25:31.001Z,1008.15
2017-08-23T01:25:49.937Z,1008.30
2017-08-23T01:26:15.549Z,1008.25
2017-08-23T01:26:32.636Z,1008.27
2017-08-23T01:26:42.350Z,1008.27
2017-08-23T01:26:52.085Z,1008.28
2017-08-23T01:27:01.870Z,1008.26
2017-08-23T01:27:11.596Z,1008.23
2017-08-23T01:27:44.112Z,1008.27
2017-08-23T01:27:58.060Z,1008.23
2017-08-23T01:28:14.016Z,1008.25
2017-08-23T01:28:33.353Z,1008.18
2017-08-23T01:28:50.709Z,1008.26
2017-08-23T01:29:09.137Z,1008.25
2017-08-23T01:29:25.150Z,1008.22
2017-08-23T01:29:34.828Z,1008.24
2017-08-23T01:29:44.565Z,1008.36
2017-08-23T01:29:54.293Z,1008.25
2017-08-23T01:30:04.029Z,1008.24
2017-08-23T01:30:15.388Z,1008.25
2017-08-23T01:30:30.316Z,1008.24
2017-08-23T01:30:39.105Z,1008.25
2017-08-23T01:30:48.838Z,1008.25
2017-08-23T01:30:58.540Z,1008.20
2017-08-23T01:31:08.348Z,1008.26
2017-08-23T01:31:18.021Z,1008.26
2017-08-23T01:31:27.789Z,1008.27
2017-08-23T01:31:37.517Z,1008.28
2017-08-23T01:31:48.857Z,1008.33
2017-08-23T01:32:00.249Z,1008.28
2017-08-23T01:32:15.121Z,1008.21
2017-08-23T01:32:23.880Z,1008.20
2017-08-23T01:32:33.630Z,1008.28
2017-08-23T01:32:43.360Z,1008.28
2017-08-23T01:32:53.120Z,1008.27
2017-08-23T01:33:02.834Z,1008.26
2017-08-23T01:33:12.572Z,1008.22
2017-08-23T01:33:22.296Z,1008.18
2017-08-23T01:33:32.056Z,1008.27
2017-08-23T01:33:48.575Z,1008.29
2017-08-23T01:33:57.369Z,1008.30
2017-08-23T01:34:07.089Z,1008.24
2017-08-23T01:34:16.817Z,1008.29
2017-08-23T01:34:26.572Z,1008.23
2017-08-23T01:34:36.320Z,1008.30
2017-08-23T01:34:46.044Z,1008.26
2017-08-23T01:35:09.001Z,1008.19
2017-08-23T01:35:17.812Z,1008.24
2017-08-23T01:35:37.720Z,1008.26
2017-08-23T01:35:48.096Z,1008.23
2017-08-23T01:35:57.671Z,1008.21
2017-08-23T01:36:07.392Z,1008.25
2017-08-23T01:36:17.161Z,1008.22
2017-08-23T01:36:32.124Z,1008.19
2017-08-23T01:36:42.593Z,1008.22
2017-08-23T01:36:58.385Z,1008.30
2017-08-23T01:37:07.752Z,1008.26
2017-08-23T01:37:17.563Z,1008.32
2017-08-23T01:37:27.228Z,1008.29
2017-08-23T01:37:52.970Z,1008.24
2017-08-23T01:38:09.881Z,1008.32
2017-08-23T01:38:19.876Z,1008.28
2017-08-23T01:38:29.604Z,1008.25
2017-08-23T01:38:39.423Z,1008.25
2017-08-23T01:38:49.085Z,1008.30
2017-08-23T01:38:58.836Z,1008.26
2017-08-23T01:39:18.854Z,1008.31
2017-08-23T01:39:34.181Z,1008.23
2017-08-23T01:39:42.870Z,1008.21
2017-08-23T01:39:52.628Z,1008.27
2017-08-23T01:40:02.368Z,1008.24
2017-08-23T01:40:12.080Z,1008.21
2017-08-23T01:40:31.097Z,1008.24
2017-08-23T01:40:45.801Z,1008.28
2017-08-23T01:40:54.559Z,1008.29
2017-08-23T01:41:04.302Z,1008.28
2017-08-23T01:41:14.033Z,1008.24
2017-08-23T01:41:23.780Z,1008.23
2017-08-23T01:41:33.504Z,1008.23
2017-08-23T01:41:43.292Z,1008.28
2017-08-23T01:41:53.004Z,1008.21
2017-08-23T01:42:02.833Z,1008.21
2017-08-23T01:42:12.513Z,1008.28
2017-08-23T01:42:22.221Z,1008.21
2017-08-23T01:42:32.017Z,1008.25
2017-08-23T01:42:46.882Z,1008.27
2017-08-23T01:42:55.631Z,1008.22
2017-08-23T01:43:05.389Z,1008.19
2017-08-23T01:43:15.192Z,1008.26
2017-08-23T01:43:24.901Z,1008.24
2017-08-23T01:43:40.808Z,1008.21
2017-08-23T01:43:50.156Z,1008.22
2017-08-23T01:43:59.905Z,1008.19
2017-08-23T01:44:09.662Z,1008.19
2017-08-23T01:44:19.403Z,1008.18
2017-08-23T01:44:29.121Z,1008.25
2017-08-23T01:44:56.858Z,1008.23
2017-08-23T01:45:12.420Z,1008.26
2017-08-23T01:45:26.368Z,1008.19
2017-08-23T01:45:35.164Z,1008.15
2017-08-23T01:45:44.892Z,1008.26
2017-08-23T01:46:04.856Z,1008.25
2017-08-23T01:46:20.417Z,1008.21
2017-08-23T01:46:35.874Z,1008.19
2017-08-23T01:46:44.612Z,1008.19
2017-08-23T01:46:54.429Z,1008.20
2017-08-23T01:47:04.102Z,1008.20
2017-08-23T01:47:13.853Z,1008.22
2017-08-23T01:47:23.578Z,1008.20
2017-08-23T01:47:33.308Z,1008.17
2017-08-23T01:47:43.057Z,1008.23
2017-08-23T01:47:52.812Z,1008.21
2017-08-23T01:48:02.541Z,1008.15
2017-08-23T01:48:12.289Z,1008.22
2017-08-23T01:48:22.012Z,1008.23
2017-08-23T01:48:31.736Z,1008.27
2017-08-23T01:48:41.473Z,1008.17
2017-08-23T01:48:56.415Z,1008.20
2017-08-23T01:49:05.181Z,1008.22
2017-08-23T01:49:20.141Z,1008.22
2017-08-23T01:49:28.972Z,1008.20
2017-08-23T01:49:43.836Z,1008.22
2017-08-23T01:49:52.657Z,1008.19
2017-08-23T01:50:02.315Z,1008.19
2017-08-23T01:50:12.120Z,1008.23
2017-08-23T01:50:21.798Z,1008.22
2017-08-23T01:50:31.528Z,1008.23
2017-08-23T01:50:41.281Z,1008.19
2017-08-23T01:50:51.085Z,1008.25
2017-08-23T01:51:00.757Z,1008.16
2017-08-23T01:51:10.579Z,1008.15
2017-08-23T01:51:29.430Z,1008.20
2017-08-23T01:51:38.984Z,1008.21
2017-08-23T01:51:48.796Z,1008.23
2017-08-23T01:52:03.712Z,1008.24
2017-08-23T01:52:12.436Z,1008.24
2017-08-23T01:52:28.334Z,1008.23
2017-08-23T01:52:37.728Z,1008.19
2017-08-23T01:52:52.709Z,1008.21
2017-08-23T01:53:11.875Z,1008.23
2017-08-23T01:53:25.065Z,1008.23
2017-08-23T01:53:34.189Z,1008.25
2017-08-23T01:53:43.890Z,1008.24
2017-08-23T01:53:53.657Z,1008.24
2017-08-23T01:54:08.586Z,1008.21
2017-08-23T01:54:17.357Z,1008.18
2017-08-23T01:54:32.293Z,1008.22
2017-08-23T01:54:41.041Z,1008.25
2017-08-23T01:54:50.777Z,1008.24
2017-08-23T01:55:00.508Z,1008.27
2017-08-23T01:55:10.257Z,1008.30
2017-08-23T01:55:25.193Z,1008.23
2017-08-23T01:55:33.978Z,1008.24
2017-08-23T01:55:43.692Z,1008.23
2017-08-23T01:55:59.181Z,1008.23
2017-08-23T01:56:14.734Z,1008.30
2017-08-23T01:56:29.788Z,1008.28
2017-08-23T01:56:38.529Z,1008.23
2017-08-23T01:56:48.289Z,1008.30
2017-08-23T01:56:58.034Z,1008.24
2017-08-23T01:57:07.760Z,1008.25
2017-08-23T01:57:17.499Z,1008.18
2017-08-23T01:57:27.217Z,1008.23
2017-08-23T01:57:43.173Z,1008.27
2017-08-23T01:57:52.521Z,1008.17
2017-08-23T01:58:02.237Z,1008.21
2017-08-23T01:58:11.988Z,1008.26
2017-08-23T01:58:21.744Z,1008.26
2017-08-23T01:58:31.480Z,1008.24
2017-08-23T01:58:41.204Z,1008.21
2017-08-23T01:58:50.980Z,1008.25
2017-08-23T01:59:00.704Z,1008.26
2017-08-23T01:59:10.436Z,1008.22
2017-08-23T01:59:25.486Z,1008.26
2017-08-23T01:59:35.877Z,1008.24
2017-08-23T01:59:45.472Z,1008.27
2017-08-23T01:59:55.200Z,1008.25
2017-08-23T02:00:16.469Z,1008.29
2017-08-23T02:00:54.624Z,1008.27
2017-08-23T02:01:03.365Z,1008.26
2017-08-23T02:01:18.312Z,1008.23
2017-08-23T02:01:27.069Z,1008.22
2017-08-23T02:01:36.845Z,1008.30
2017-08-23T02:01:56.913Z,1008.25
2017-08-23T02:02:10.206Z,1008.20
2017-08-23T02:02:24.477Z,1008.26
2017-08-23T02:02:33.245Z,1008.26
2017-08-23T02:02:42.976Z,1008.22
2017-08-23T02:02:52.718Z,1008.28
2017-08-23T02:03:08.637Z,1008.21
2017-08-23T02:03:18.021Z,1008.24
2017-08-23T02:03:27.764Z,1008.28
2017-08-23T02:03:37.509Z,1008.23
2017-08-23T02:03:47.232Z,1008.23
2017-08-23T02:03:56.968Z,1008.22
2017-08-23T02:04:06.701Z,1008.28
2017-08-23T02:04:26.890Z,1008.23
2017-08-23T02:04:46.086Z,1008.21
2017-08-23T02:04:55.608Z,1008.27
2017-08-23T02:05:05.334Z,1008.28
2017-08-23T02:05:21.244Z,1008.24
2017-08-23T02:05:30.631Z,1008.26
2017-08-23T02:05:40.388Z,1008.28
2017-08-23T02:05:50.160Z,1008.23
2017-08-23T02:05:59.834Z,1008.19
2017-08-23T02:06:09.612Z,1008.16
2017-08-23T02:06:19.300Z,1008.22
2017-08-23T02:06:29.127Z,1008.28
2017-08-23T02:06:38.768Z,1008.18
2017-08-23T02:06:57.894Z,1008.21
2017-08-23T02:07:18.064Z,1008.18
2017-08-23T02:07:27.638Z,1008.19
2017-08-23T02:07:37.388Z,1008.26
2017-08-23T02:07:47.164Z,1008.24
2017-08-23T02:07:56.875Z,1008.19
2017-08-23T02:08:06.598Z,1008.20
2017-08-23T02:08:16.386Z,1008.19
2017-08-23T02:08:26.085Z,1008.23
2017-08-23T02:08:35.812Z,1008.21
2017-08-23T02:08:51.252Z,1008.17
2017-08-23T02:09:01.137Z,1008.18
2017-08-23T02:09:10.857Z,1008.16
2017-08-23T02:09:20.584Z,1008.11
2017-08-23T02:09:30.331Z,1008.13
2017-08-23T02:09:40.088Z,1008.19
2017-08-23T02:09:56.044Z,1008.22
2017-08-23T02:10:05.369Z,1008.19
2017-08-23T02:10:15.113Z,1008.20
2017-08-23T02:10:24.969Z,1008.21
2017-08-23T02:10:34.604Z,1008.16
2017-08-23T02:10:44.316Z,1008.22
2017-08-23T02:10:54.061Z,1008.18
2017-08-23T02:11:03.796Z,1008.14
2017-08-23T02:11:13.526Z,1008.19
2017-08-23T02:11:23.247Z,1008.21
2017-08-23T02:11:33.000Z,1008.15
2017-08-23T02:11:48.941Z,1008.17
2017-08-23T02:11:58.329Z,1008.24
2017-08-23T02:12:14.468Z,1008.19
2017-08-23T02:12:24.163Z,1008.18
2017-08-23T02:12:33.920Z,1008.21
2017-08-23T02:12:43.656Z,1008.22
2017-08-23T02:12:58.600Z,1008.24
2017-08-23T02:13:07.348Z,1008.13
2017-08-23T02:13:17.097Z,1008.18
2017-08-23T02:13:26.824Z,1008.20
2017-08-23T02:13:44.576Z,1008.20
2017-08-23T02:13:55.913Z,1008.27
2017-08-23T02:14:05.631Z,1008.18
2017-08-23T02:14:15.373Z,1008.22
2017-08-23T02:14:30.314Z,1008.21
2017-08-23T02:14:42.409Z,1008.18
2017-08-23T02:14:57.222Z,1008.23
2017-08-23T02:15:05.968Z,1008.24
2017-08-23T02:15:21.951Z,1008.21
2017-08-23T02:15:31.283Z,1008.12
2017-08-23T02:15:45.772Z,1008.13
2017-08-23T02:15:55.349Z,1008.22
2017-08-23T02:16:04.725Z,1008.12
2017-08-23T02:16:19.656Z,1008.13
2017-08-23T02:16:34.828Z,1008.17
2017-08-23T02:16:44.664Z,1008.13
2017-08-23T02:16:59.492Z,1008.11
2017-08-23T02:17:08.260Z,1008.11
2017-08-23T02:17:27.404Z,1008.09
2017-08-23T02:17:40.995Z,1008.18
2017-08-23T02:17:50.728Z,1008.21
2017-08-23T02:18:00.472Z,1008.15
2017-08-23T02:18:10.205Z,1008.11
2017-08-23T02:18:20.038Z,1008.15
2017-08-23T02:18:29.696Z,1008.17
2017-08-23T02:18:44.628Z,1008.18
2017-08-23T02:18:53.501Z,1008.21
2017-08-23T02:19:03.146Z,1008.14
2017-08-23T02:19:12.864Z,1008.15
2017-08-23T02:19:22.696Z,1008.16
2017-08-23T02:19:38.581Z,1008.15
2017-08-23T02:19:49.525Z,1008.09
2017-08-23T02:19:59.262Z,1008.14
2017-08-23T02:20:08.981Z,1008.10
2017-08-23T02:20:18.705Z,1008.21
2017-08-23T02:20:28.466Z,1008.14
2017-08-23T02:20:38.212Z,1008.15
2017-08-23T02:20:47.939Z,1008.12
2017-08-23T02:20:57.668Z,1008.11
2017-08-23T02:21:07.520Z,1008.13
2017-08-23T02:21:17.170Z,1008.14
2017-08-23T02:21:26.910Z,1008.13
2017-08-23T02:21:36.704Z,1008.06
2017-08-23T02:21:46.369Z,1008.01
2017-08-23T02:21:56.092Z,1008.06
2017-08-23T02:22:11.096Z,1008.04
2017-08-23T02:22:19.792Z,1008.09
2017-08-23T02:22:29.753Z,1008.13
2017-08-23T02:22:39.343Z,1008.13
2017-08-23T02:22:49.001Z,1008.14
2017-08-23T02:23:17.121Z,1008.03
2017-08-23T02:23:27.140Z,1008.08
2017-08-23T02:23:42.052Z,1008.08
2017-08-23T02:23:55.525Z,1008.04
2017-08-23T02:24:04.781Z,1008.04
2017-08-23T02:24:14.500Z,1008.09
2017-08-23T02:24:24.253Z,1008.10
2017-08-23T02:24:43.177Z,1008.12
2017-08-23T02:24:52.785Z,1008.11
2017-08-23T02:25:02.492Z,1008.08
2017-08-23T02:25:12.245Z,1008.11
2017-08-23T02:25:21.988Z,1008.04
2017-08-23T02:25:31.717Z,1008.05
2017-08-23T02:25:41.445Z,1008.07
2017-08-23T02:25:51.216Z,1008.03
2017-08-23T02:26:00.921Z,1008.13